sensor_id;sensor_type;location;lat;lon;timestamp;P1;durP1;ratioP1;P2;durP2;ratioP2
54539;SDS011;40438;52.992;18.604;2023-04-23T00:01:41;20.90;;;10.30;;
54539;SDS011;40438;52.992;18.604;2023-04-23T00:04:07;23.27;;;11.40;;
54539;SDS011;40438;52.992;18.604;2023-04-23T00:06:35;20.48;;;10.77;;
54539;SDS011;40438;52.992;18.604;2023-04-23T00:09:01;24.35;;;10.88;;
54539;SDS011;40438;52.992;18.604;2023-04-23T00:11:28;23.75;;;11.07;;
54539;SDS011;40438;52.992;18.604;2023-04-23T00:13:54;20.15;;;11.05;;
54539;SDS011;40438;52.992;18.604;2023-04-23T00:16:22;22.85;;;10.90;;
54539;SDS011;40438;52.992;18.604;2023-04-23T00:18:48;24.40;;;11.15;;
54539;SDS011;40438;52.992;18.604;2023-04-23T00:21:14;23.48;;;11.48;;
54539;SDS011;40438;52.992;18.604;2023-04-23T00:23:39;24.20;;;11.45;;
54539;SDS011;40438;52.992;18.604;2023-04-23T00:26:05;24.00;;;10.27;;
54539;SDS011;40438;52.992;18.604;2023-04-23T00:28:31;23.35;;;10.43;;
54539;SDS011;40438;52.992;18.604;2023-04-23T00:30:57;25.02;;;11.88;;
54539;SDS011;40438;52.992;18.604;2023-04-23T00:33:24;25.73;;;11.23;;
54539;SDS011;40438;52.992;18.604;2023-04-23T00:35:50;22.58;;;11.07;;
54539;SDS011;40438;52.992;18.604;2023-04-23T00:38:15;25.02;;;11.38;;
54539;SDS011;40438;52.992;18.604;2023-04-23T00:40:41;25.90;;;11.25;;
54539;SDS011;40438;52.992;18.604;2023-04-23T00:43:07;26.38;;;11.45;;
54539;SDS011;40438;52.992;18.604;2023-04-23T00:45:33;25.13;;;11.85;;
54539;SDS011;40438;52.992;18.604;2023-04-23T00:47:59;19.27;;;10.23;;
54539;SDS011;40438;52.992;18.604;2023-04-23T00:50:27;24.15;;;11.07;;
54539;SDS011;40438;52.992;18.604;2023-04-23T00:52:53;22.98;;;10.43;;
54539;SDS011;40438;52.992;18.604;2023-04-23T00:55:19;24.25;;;10.35;;
54539;SDS011;40438;52.992;18.604;2023-04-23T00:57:45;22.08;;;10.02;;
54539;SDS011;40438;52.992;18.604;2023-04-23T01:00:12;22.38;;;10.77;;
54539;SDS011;40438;52.992;18.604;2023-04-23T01:02:38;23.80;;;9.77;;
54539;SDS011;40438;52.992;18.604;2023-04-23T01:05:06;24.67;;;10.57;;
54539;SDS011;40438;52.992;18.604;2023-04-23T01:07:35;21.58;;;10.85;;
54539;SDS011;40438;52.992;18.604;2023-04-23T01:10:02;21.15;;;10.85;;
54539;SDS011;40438;52.992;18.604;2023-04-23T01:12:29;21.60;;;10.10;;
54539;SDS011;40438;52.992;18.604;2023-04-23T01:14:55;26.25;;;10.23;;
54539;SDS011;40438;52.992;18.604;2023-04-23T01:17:21;23.27;;;10.30;;
54539;SDS011;40438;52.992;18.604;2023-04-23T01:19:47;24.40;;;10.82;;
54539;SDS011;40438;52.992;18.604;2023-04-23T01:22:14;19.23;;;10.38;;
54539;SDS011;40438;52.992;18.604;2023-04-23T01:24:41;24.92;;;10.82;;
54539;SDS011;40438;52.992;18.604;2023-04-23T01:27:07;17.63;;;9.40;;
54539;SDS011;40438;52.992;18.604;2023-04-23T01:29:33;19.20;;;10.15;;
54539;SDS011;40438;52.992;18.604;2023-04-23T01:31:59;19.15;;;9.77;;
54539;SDS011;40438;52.992;18.604;2023-04-23T01:34:25;20.23;;;9.82;;
54539;SDS011;40438;52.992;18.604;2023-04-23T01:36:51;18.90;;;9.80;;
54539;SDS011;40438;52.992;18.604;2023-04-23T01:39:20;20.73;;;10.75;;
54539;SDS011;40438;52.992;18.604;2023-04-23T01:41:46;19.92;;;9.68;;
54539;SDS011;40438;52.992;18.604;2023-04-23T01:44:13;20.75;;;9.85;;
54539;SDS011;40438;52.992;18.604;2023-04-23T01:46:38;23.92;;;10.32;;
54539;SDS011;40438;52.992;18.604;2023-04-23T01:49:04;23.83;;;10.05;;
54539;SDS011;40438;52.992;18.604;2023-04-23T01:51:30;18.98;;;9.27;;
54539;SDS011;40438;52.992;18.604;2023-04-23T01:53:56;17.63;;;8.55;;
54539;SDS011;40438;52.992;18.604;2023-04-23T01:56:24;22.67;;;9.55;;
54539;SDS011;40438;52.992;18.604;2023-04-23T01:58:51;21.13;;;8.93;;
54539;SDS011;40438;52.992;18.604;2023-04-23T02:01:17;15.93;;;8.68;;
54539;SDS011;40438;52.992;18.604;2023-04-23T02:03:43;20.05;;;9.60;;
54539;SDS011;40438;52.992;18.604;2023-04-23T02:06:09;21.30;;;9.02;;
54539;SDS011;40438;52.992;18.604;2023-04-23T02:08:35;23.55;;;10.00;;
54539;SDS011;40438;52.992;18.604;2023-04-23T02:11:01;18.98;;;9.00;;
54539;SDS011;40438;52.992;18.604;2023-04-23T02:13:28;15.30;;;8.00;;
54539;SDS011;40438;52.992;18.604;2023-04-23T02:15:54;15.20;;;8.35;;
54539;SDS011;40438;52.992;18.604;2023-04-23T02:18:20;15.60;;;8.40;;
54539;SDS011;40438;52.992;18.604;2023-04-23T02:20:46;22.98;;;8.95;;
54539;SDS011;40438;52.992;18.604;2023-04-23T02:23:12;14.40;;;8.25;;
54539;SDS011;40438;52.992;18.604;2023-04-23T02:25:38;14.13;;;8.40;;
54539;SDS011;40438;52.992;18.604;2023-04-23T02:28:04;16.48;;;8.45;;
54539;SDS011;40438;52.992;18.604;2023-04-23T02:30:31;18.65;;;7.82;;
54539;SDS011;40438;52.992;18.604;2023-04-23T02:32:57;17.98;;;8.65;;
54539;SDS011;40438;52.992;18.604;2023-04-23T02:35:23;16.77;;;7.95;;
54539;SDS011;40438;52.992;18.604;2023-04-23T02:37:49;20.25;;;8.38;;
54539;SDS011;40438;52.992;18.604;2023-04-23T02:40:15;16.80;;;8.18;;
54539;SDS011;40438;52.992;18.604;2023-04-23T02:42:41;16.75;;;8.77;;
54539;SDS011;40438;52.992;18.604;2023-04-23T02:45:07;19.65;;;8.15;;
54539;SDS011;40438;52.992;18.604;2023-04-23T02:47:35;18.23;;;8.10;;
54539;SDS011;40438;52.992;18.604;2023-04-23T02:50:00;16.83;;;8.50;;
54539;SDS011;40438;52.992;18.604;2023-04-23T02:52:26;17.65;;;8.60;;
54539;SDS011;40438;52.992;18.604;2023-04-23T02:54:52;17.23;;;7.78;;
54539;SDS011;40438;52.992;18.604;2023-04-23T02:57:18;17.73;;;8.82;;
54539;SDS011;40438;52.992;18.604;2023-04-23T02:59:44;17.90;;;7.80;;
54539;SDS011;40438;52.992;18.604;2023-04-23T03:02:10;14.88;;;7.50;;
54539;SDS011;40438;52.992;18.604;2023-04-23T03:04:37;15.45;;;7.75;;
54539;SDS011;40438;52.992;18.604;2023-04-23T03:07:03;13.20;;;7.03;;
54539;SDS011;40438;52.992;18.604;2023-04-23T03:09:31;17.10;;;7.63;;
54539;SDS011;40438;52.992;18.604;2023-04-23T03:11:57;13.25;;;6.90;;
54539;SDS011;40438;52.992;18.604;2023-04-23T03:14:23;15.95;;;7.43;;
54539;SDS011;40438;52.992;18.604;2023-04-23T03:16:49;14.85;;;7.57;;
54539;SDS011;40438;52.992;18.604;2023-04-23T03:19:15;16.08;;;7.40;;
54539;SDS011;40438;52.992;18.604;2023-04-23T03:21:42;18.02;;;7.85;;
54539;SDS011;40438;52.992;18.604;2023-04-23T03:24:09;15.80;;;7.05;;
54539;SDS011;40438;52.992;18.604;2023-04-23T03:26:36;11.68;;;6.60;;
54539;SDS011;40438;52.992;18.604;2023-04-23T03:29:02;14.52;;;6.90;;
54539;SDS011;40438;52.992;18.604;2023-04-23T03:31:28;13.57;;;6.72;;
54539;SDS011;40438;52.992;18.604;2023-04-23T03:33:54;13.70;;;7.10;;
54539;SDS011;40438;52.992;18.604;2023-04-23T03:36:27;14.05;;;7.05;;
54539;SDS011;40438;52.992;18.604;2023-04-23T03:38:55;14.15;;;7.13;;
54539;SDS011;40438;52.992;18.604;2023-04-23T03:41:21;18.63;;;7.82;;
54539;SDS011;40438;52.992;18.604;2023-04-23T03:43:49;15.25;;;8.50;;
54539;SDS011;40438;52.992;18.604;2023-04-23T03:46:18;12.43;;;6.97;;
54539;SDS011;40438;52.992;18.604;2023-04-23T03:48:45;14.68;;;7.28;;
54539;SDS011;40438;52.992;18.604;2023-04-23T03:51:18;15.00;;;8.15;;
54539;SDS011;40438;52.992;18.604;2023-04-23T03:53:47;19.35;;;7.22;;
54539;SDS011;40438;52.992;18.604;2023-04-23T03:56:53;19.13;;;7.70;;
54539;SDS011;40438;52.992;18.604;2023-04-23T03:59:25;14.57;;;6.85;;
54539;SDS011;40438;52.992;18.604;2023-04-23T04:01:53;13.45;;;7.43;;
54539;SDS011;40438;52.992;18.604;2023-04-23T04:04:19;14.90;;;8.15;;
54539;SDS011;40438;52.992;18.604;2023-04-23T04:06:47;14.93;;;7.38;;
54539;SDS011;40438;52.992;18.604;2023-04-23T04:09:12;14.30;;;7.32;;
54539;SDS011;40438;52.992;18.604;2023-04-23T04:11:38;14.20;;;7.78;;
54539;SDS011;40438;52.992;18.604;2023-04-23T04:14:05;15.70;;;7.50;;
54539;SDS011;40438;52.992;18.604;2023-04-23T04:16:31;17.00;;;7.10;;
54539;SDS011;40438;52.992;18.604;2023-04-23T04:18:57;12.18;;;6.70;;
54539;SDS011;40438;52.992;18.604;2023-04-23T04:21:22;15.90;;;6.82;;
54539;SDS011;40438;52.992;18.604;2023-04-23T04:23:48;14.32;;;6.97;;
54539;SDS011;40438;52.992;18.604;2023-04-23T04:26:14;16.10;;;7.88;;
54539;SDS011;40438;52.992;18.604;2023-04-23T04:28:40;14.25;;;7.30;;
54539;SDS011;40438;52.992;18.604;2023-04-23T04:31:07;15.80;;;7.80;;
54539;SDS011;40438;52.992;18.604;2023-04-23T04:33:33;16.45;;;7.88;;
54539;SDS011;40438;52.992;18.604;2023-04-23T04:35:59;17.50;;;7.45;;
54539;SDS011;40438;52.992;18.604;2023-04-23T04:38:25;16.48;;;7.50;;
54539;SDS011;40438;52.992;18.604;2023-04-23T04:40:53;14.85;;;7.88;;
54539;SDS011;40438;52.992;18.604;2023-04-23T04:43:19;15.85;;;7.70;;
54539;SDS011;40438;52.992;18.604;2023-04-23T04:45:45;16.10;;;7.80;;
54539;SDS011;40438;52.992;18.604;2023-04-23T04:48:12;15.73;;;7.43;;
54539;SDS011;40438;52.992;18.604;2023-04-23T04:50:38;19.50;;;8.23;;
54539;SDS011;40438;52.992;18.604;2023-04-23T04:53:04;13.20;;;7.40;;
54539;SDS011;40438;52.992;18.604;2023-04-23T04:55:29;15.25;;;7.57;;
54539;SDS011;40438;52.992;18.604;2023-04-23T04:57:55;18.02;;;8.00;;
54539;SDS011;40438;52.992;18.604;2023-04-23T05:00:23;16.52;;;7.72;;
54539;SDS011;40438;52.992;18.604;2023-04-23T05:02:49;15.18;;;7.43;;
54539;SDS011;40438;52.992;18.604;2023-04-23T05:05:17;15.48;;;7.40;;
54539;SDS011;40438;52.992;18.604;2023-04-23T05:07:43;15.35;;;7.93;;
54539;SDS011;40438;52.992;18.604;2023-04-23T05:10:09;17.63;;;7.15;;
54539;SDS011;40438;52.992;18.604;2023-04-23T05:12:36;15.90;;;7.85;;
54539;SDS011;40438;52.992;18.604;2023-04-23T05:15:01;11.02;;;6.57;;
54539;SDS011;40438;52.992;18.604;2023-04-23T05:17:28;12.05;;;6.93;;
54539;SDS011;40438;52.992;18.604;2023-04-23T05:19:53;18.42;;;7.47;;
54539;SDS011;40438;52.992;18.604;2023-04-23T05:22:21;12.23;;;7.05;;
54539;SDS011;40438;52.992;18.604;2023-04-23T05:24:47;16.20;;;6.85;;
54539;SDS011;40438;52.992;18.604;2023-04-23T05:27:13;16.80;;;7.57;;
54539;SDS011;40438;52.992;18.604;2023-04-23T05:29:39;19.08;;;7.88;;
54539;SDS011;40438;52.992;18.604;2023-04-23T05:32:04;16.15;;;6.93;;
54539;SDS011;40438;52.992;18.604;2023-04-23T05:34:30;18.38;;;8.30;;
54539;SDS011;40438;52.992;18.604;2023-04-23T05:36:56;13.80;;;6.95;;
54539;SDS011;40438;52.992;18.604;2023-04-23T05:39:23;16.50;;;7.88;;
54539;SDS011;40438;52.992;18.604;2023-04-23T05:41:49;16.02;;;6.95;;
54539;SDS011;40438;52.992;18.604;2023-04-23T05:44:15;13.73;;;6.95;;
54539;SDS011;40438;52.992;18.604;2023-04-23T05:46:40;11.93;;;7.13;;
54539;SDS011;40438;52.992;18.604;2023-04-23T05:49:06;15.48;;;7.05;;
54539;SDS011;40438;52.992;18.604;2023-04-23T05:51:32;15.50;;;7.72;;
54539;SDS011;40438;52.992;18.604;2023-04-23T05:53:58;14.13;;;7.07;;
54539;SDS011;40438;52.992;18.604;2023-04-23T05:56:25;14.07;;;7.05;;
54539;SDS011;40438;52.992;18.604;2023-04-23T05:58:51;15.02;;;7.35;;
54539;SDS011;40438;52.992;18.604;2023-04-23T06:01:17;17.67;;;7.72;;
54539;SDS011;40438;52.992;18.604;2023-04-23T06:03:43;14.73;;;7.95;;
54539;SDS011;40438;52.992;18.604;2023-04-23T06:06:10;16.35;;;7.88;;
54539;SDS011;40438;52.992;18.604;2023-04-23T06:08:36;13.10;;;7.25;;
54539;SDS011;40438;52.992;18.604;2023-04-23T06:11:02;11.18;;;7.00;;
54539;SDS011;40438;52.992;18.604;2023-04-23T06:13:29;19.10;;;8.02;;
54539;SDS011;40438;52.992;18.604;2023-04-23T06:15:55;12.85;;;7.00;;
54539;SDS011;40438;52.992;18.604;2023-04-23T06:18:21;17.33;;;7.80;;
54539;SDS011;40438;52.992;18.604;2023-04-23T06:20:46;14.93;;;7.25;;
54539;SDS011;40438;52.992;18.604;2023-04-23T06:23:12;15.07;;;6.95;;
54539;SDS011;40438;52.992;18.604;2023-04-23T06:25:38;12.52;;;7.18;;
54539;SDS011;40438;52.992;18.604;2023-04-23T06:28:04;17.63;;;7.80;;
54539;SDS011;40438;52.992;18.604;2023-04-23T06:30:39;15.68;;;7.25;;
54539;SDS011;40438;52.992;18.604;2023-04-23T06:33:07;17.35;;;8.02;;
54539;SDS011;40438;52.992;18.604;2023-04-23T06:35:32;12.50;;;7.22;;
54539;SDS011;40438;52.992;18.604;2023-04-23T06:37:58;13.30;;;7.90;;
54539;SDS011;40438;52.992;18.604;2023-04-23T06:40:24;15.88;;;7.85;;
54539;SDS011;40438;52.992;18.604;2023-04-23T06:42:50;14.40;;;7.60;;
54539;SDS011;40438;52.992;18.604;2023-04-23T06:45:17;13.50;;;7.43;;
54539;SDS011;40438;52.992;18.604;2023-04-23T06:47:45;13.43;;;7.72;;
54539;SDS011;40438;52.992;18.604;2023-04-23T06:50:11;15.05;;;7.72;;
54539;SDS011;40438;52.992;18.604;2023-04-23T06:52:36;12.98;;;7.10;;
54539;SDS011;40438;52.992;18.604;2023-04-23T06:55:02;15.95;;;7.57;;
54539;SDS011;40438;52.992;18.604;2023-04-23T06:57:28;13.07;;;7.50;;
54539;SDS011;40438;52.992;18.604;2023-04-23T06:59:54;15.73;;;7.88;;
54539;SDS011;40438;52.992;18.604;2023-04-23T07:02:27;15.30;;;6.97;;
54539;SDS011;40438;52.992;18.604;2023-04-23T07:04:54;16.52;;;7.45;;
54539;SDS011;40438;52.992;18.604;2023-04-23T07:07:19;14.55;;;7.32;;
54539;SDS011;40438;52.992;18.604;2023-04-23T07:09:45;15.77;;;7.38;;
54539;SDS011;40438;52.992;18.604;2023-04-23T07:12:11;15.32;;;6.93;;
54539;SDS011;40438;52.992;18.604;2023-04-23T07:14:37;12.02;;;6.53;;
54539;SDS011;40438;52.992;18.604;2023-04-23T07:17:03;14.23;;;6.72;;
54539;SDS011;40438;52.992;18.604;2023-04-23T07:19:28;13.55;;;6.78;;
54539;SDS011;40438;52.992;18.604;2023-04-23T07:21:55;13.05;;;6.35;;
54539;SDS011;40438;52.992;18.604;2023-04-23T07:24:21;10.65;;;6.88;;
54539;SDS011;40438;52.992;18.604;2023-04-23T07:26:47;11.93;;;6.82;;
54539;SDS011;40438;52.992;18.604;2023-04-23T07:29:13;11.90;;;6.95;;
54539;SDS011;40438;52.992;18.604;2023-04-23T07:31:38;13.45;;;7.32;;
54539;SDS011;40438;52.992;18.604;2023-04-23T07:34:04;12.07;;;7.13;;
54539;SDS011;40438;52.992;18.604;2023-04-23T07:36:30;14.43;;;7.13;;
54539;SDS011;40438;52.992;18.604;2023-04-23T07:38:57;12.95;;;7.13;;
54539;SDS011;40438;52.992;18.604;2023-04-23T07:41:23;12.50;;;6.20;;
54539;SDS011;40438;52.992;18.604;2023-04-23T07:43:49;12.38;;;6.60;;
54539;SDS011;40438;52.992;18.604;2023-04-23T07:46:15;13.70;;;6.28;;
54539;SDS011;40438;52.992;18.604;2023-04-23T07:48:40;12.90;;;6.57;;
54539;SDS011;40438;52.992;18.604;2023-04-23T07:51:06;12.50;;;6.55;;
54539;SDS011;40438;52.992;18.604;2023-04-23T07:53:33;10.98;;;6.65;;
54539;SDS011;40438;52.992;18.604;2023-04-23T07:56:00;14.45;;;6.65;;
54539;SDS011;40438;52.992;18.604;2023-04-23T07:58:26;10.50;;;6.15;;
54539;SDS011;40438;52.992;18.604;2023-04-23T08:00:52;10.35;;;6.13;;
54539;SDS011;40438;52.992;18.604;2023-04-23T08:03:18;11.80;;;6.97;;
54539;SDS011;40438;52.992;18.604;2023-04-23T08:05:43;12.88;;;6.75;;
54539;SDS011;40438;52.992;18.604;2023-04-23T08:08:10;11.23;;;6.35;;
54539;SDS011;40438;52.992;18.604;2023-04-23T08:10:37;11.73;;;6.53;;
54539;SDS011;40438;52.992;18.604;2023-04-23T08:13:04;12.85;;;6.05;;
54539;SDS011;40438;52.992;18.604;2023-04-23T08:15:30;11.43;;;6.72;;
54539;SDS011;40438;52.992;18.604;2023-04-23T08:17:55;10.07;;;6.53;;
54539;SDS011;40438;52.992;18.604;2023-04-23T08:20:21;15.88;;;6.43;;
54539;SDS011;40438;52.992;18.604;2023-04-23T08:22:47;15.02;;;6.35;;
54539;SDS011;40438;52.992;18.604;2023-04-23T08:25:13;9.98;;;5.90;;
54539;SDS011;40438;52.992;18.604;2023-04-23T08:27:38;10.73;;;6.05;;
54539;SDS011;40438;52.992;18.604;2023-04-23T08:30:06;10.73;;;6.15;;
54539;SDS011;40438;52.992;18.604;2023-04-23T08:32:33;14.00;;;6.15;;
54539;SDS011;40438;52.992;18.604;2023-04-23T08:34:59;10.77;;;6.30;;
54539;SDS011;40438;52.992;18.604;2023-04-23T08:37:24;12.43;;;6.68;;
54539;SDS011;40438;52.992;18.604;2023-04-23T08:39:50;10.73;;;5.78;;
54539;SDS011;40438;52.992;18.604;2023-04-23T08:42:17;13.23;;;5.30;;
54539;SDS011;40438;52.992;18.604;2023-04-23T08:44:48;13.37;;;5.97;;
54539;SDS011;40438;52.992;18.604;2023-04-23T08:47:17;13.32;;;6.03;;
54539;SDS011;40438;52.992;18.604;2023-04-23T08:49:44;9.55;;;5.78;;
54539;SDS011;40438;52.992;18.604;2023-04-23T08:52:14;10.43;;;6.13;;
54539;SDS011;40438;52.992;18.604;2023-04-23T08:54:41;10.55;;;6.15;;
54539;SDS011;40438;52.992;18.604;2023-04-23T08:57:10;11.02;;;6.55;;
54539;SDS011;40438;52.992;18.604;2023-04-23T08:59:38;9.93;;;5.85;;
54539;SDS011;40438;52.992;18.604;2023-04-23T09:02:04;9.90;;;5.00;;
54539;SDS011;40438;52.992;18.604;2023-04-23T09:04:32;10.98;;;5.35;;
54539;SDS011;40438;52.992;18.604;2023-04-23T09:06:58;9.20;;;5.47;;
54539;SDS011;40438;52.992;18.604;2023-04-23T09:09:24;8.18;;;5.18;;
54539;SDS011;40438;52.992;18.604;2023-04-23T09:11:52;8.35;;;4.90;;
54539;SDS011;40438;52.992;18.604;2023-04-23T09:14:19;10.02;;;4.55;;
54539;SDS011;40438;52.992;18.604;2023-04-23T09:16:46;10.30;;;4.80;;
54539;SDS011;40438;52.992;18.604;2023-04-23T09:19:12;8.38;;;5.10;;
54539;SDS011;40438;52.992;18.604;2023-04-23T09:21:40;11.52;;;4.78;;
54539;SDS011;40438;52.992;18.604;2023-04-23T09:24:08;8.55;;;4.43;;
54539;SDS011;40438;52.992;18.604;2023-04-23T09:26:34;7.60;;;5.35;;
54539;SDS011;40438;52.992;18.604;2023-04-23T09:29:11;10.00;;;5.43;;
54539;SDS011;40438;52.992;18.604;2023-04-23T09:31:37;10.27;;;4.50;;
54539;SDS011;40438;52.992;18.604;2023-04-23T09:34:03;8.32;;;4.60;;
54539;SDS011;40438;52.992;18.604;2023-04-23T09:36:31;7.88;;;4.63;;
54539;SDS011;40438;52.992;18.604;2023-04-23T09:38:58;10.82;;;4.65;;
54539;SDS011;40438;52.992;18.604;2023-04-23T09:41:25;7.00;;;3.95;;
54539;SDS011;40438;52.992;18.604;2023-04-23T09:43:52;8.38;;;4.47;;
54539;SDS011;40438;52.992;18.604;2023-04-23T09:46:18;6.68;;;4.10;;
54539;SDS011;40438;52.992;18.604;2023-04-23T09:48:43;8.13;;;3.65;;
54539;SDS011;40438;52.992;18.604;2023-04-23T09:51:12;8.10;;;4.15;;
54539;SDS011;40438;52.992;18.604;2023-04-23T09:53:39;11.35;;;3.67;;
54539;SDS011;40438;52.992;18.604;2023-04-23T09:56:07;5.32;;;4.15;;
54539;SDS011;40438;52.992;18.604;2023-04-23T09:58:32;6.45;;;4.45;;
54539;SDS011;40438;52.992;18.604;2023-04-23T10:01:04;6.80;;;4.40;;
54539;SDS011;40438;52.992;18.604;2023-04-23T10:05:56;8.30;;;4.18;;
54539;SDS011;40438;52.992;18.604;2023-04-23T10:08:22;14.85;;;4.35;;
54539;SDS011;40438;52.992;18.604;2023-04-23T10:10:49;9.65;;;4.07;;
54539;SDS011;40438;52.992;18.604;2023-04-23T10:13:16;8.32;;;4.15;;
54539;SDS011;40438;52.992;18.604;2023-04-23T10:15:42;8.35;;;3.67;;
54539;SDS011;40438;52.992;18.604;2023-04-23T10:18:11;5.97;;;3.33;;
54539;SDS011;40438;52.992;18.604;2023-04-23T10:20:38;18.85;;;4.45;;
54539;SDS011;40438;52.992;18.604;2023-04-23T10:23:05;7.72;;;3.40;;
54539;SDS011;40438;52.992;18.604;2023-04-23T10:25:33;7.72;;;3.60;;
54539;SDS011;40438;52.992;18.604;2023-04-23T10:28:03;8.88;;;3.58;;
54539;SDS011;40438;52.992;18.604;2023-04-23T10:30:32;5.75;;;4.07;;
54539;SDS011;40438;52.992;18.604;2023-04-23T10:32:57;4.82;;;3.63;;
54539;SDS011;40438;52.992;18.604;2023-04-23T10:35:24;9.55;;;3.80;;
54539;SDS011;40438;52.992;18.604;2023-04-23T10:37:51;6.50;;;3.28;;
54539;SDS011;40438;52.992;18.604;2023-04-23T10:40:18;6.15;;;3.63;;
54539;SDS011;40438;52.992;18.604;2023-04-23T10:42:48;9.48;;;3.42;;
54539;SDS011;40438;52.992;18.604;2023-04-23T10:45:15;8.30;;;3.33;;
54539;SDS011;40438;52.992;18.604;2023-04-23T10:47:43;7.90;;;3.72;;
54539;SDS011;40438;52.992;18.604;2023-04-23T10:50:19;8.32;;;3.17;;
54539;SDS011;40438;52.992;18.604;2023-04-23T10:52:47;5.43;;;3.28;;
54539;SDS011;40438;52.992;18.604;2023-04-23T10:55:15;5.60;;;3.50;;
54539;SDS011;40438;52.992;18.604;2023-04-23T10:57:53;4.72;;;3.13;;
54539;SDS011;40438;52.992;18.604;2023-04-23T11:00:23;5.22;;;3.40;;
54539;SDS011;40438;52.992;18.604;2023-04-23T11:02:51;9.77;;;3.45;;
54539;SDS011;40438;52.992;18.604;2023-04-23T11:05:16;5.03;;;3.60;;
54539;SDS011;40438;52.992;18.604;2023-04-23T11:08:00;16.95;;;3.08;;
54539;SDS011;40438;52.992;18.604;2023-04-23T11:10:27;7.40;;;3.35;;
54539;SDS011;40438;52.992;18.604;2023-04-23T11:12:54;8.73;;;3.50;;
54539;SDS011;40438;52.992;18.604;2023-04-23T11:15:20;6.80;;;2.83;;
54539;SDS011;40438;52.992;18.604;2023-04-23T11:17:59;6.10;;;2.75;;
54539;SDS011;40438;52.992;18.604;2023-04-23T11:20:25;4.57;;;2.83;;
54539;SDS011;40438;52.992;18.604;2023-04-23T11:22:51;6.45;;;2.92;;
54539;SDS011;40438;52.992;18.604;2023-04-23T11:25:18;8.68;;;2.53;;
54539;SDS011;40438;52.992;18.604;2023-04-23T11:27:45;5.20;;;3.08;;
54539;SDS011;40438;52.992;18.604;2023-04-23T11:30:12;4.43;;;2.47;;
54539;SDS011;40438;52.992;18.604;2023-04-23T11:32:39;4.93;;;2.42;;
54539;SDS011;40438;52.992;18.604;2023-04-23T11:35:07;7.68;;;2.92;;
54539;SDS011;40438;52.992;18.604;2023-04-23T11:37:37;5.40;;;2.70;;
54539;SDS011;40438;52.992;18.604;2023-04-23T11:40:04;4.25;;;2.90;;
54539;SDS011;40438;52.992;18.604;2023-04-23T11:42:31;7.60;;;2.78;;
54539;SDS011;40438;52.992;18.604;2023-04-23T11:44:56;8.40;;;3.15;;
54539;SDS011;40438;52.992;18.604;2023-04-23T11:47:22;4.43;;;2.80;;
54539;SDS011;40438;52.992;18.604;2023-04-23T11:49:50;4.28;;;2.72;;
54539;SDS011;40438;52.992;18.604;2023-04-23T11:52:17;5.18;;;2.30;;
54539;SDS011;40438;52.992;18.604;2023-04-23T11:54:43;7.65;;;2.80;;
54539;SDS011;40438;52.992;18.604;2023-04-23T11:57:09;5.43;;;2.67;;
54539;SDS011;40438;52.992;18.604;2023-04-23T11:59:35;3.55;;;2.53;;
54539;SDS011;40438;52.992;18.604;2023-04-23T12:02:00;4.50;;;2.40;;
54539;SDS011;40438;52.992;18.604;2023-04-23T12:04:27;6.90;;;2.45;;
54539;SDS011;40438;52.992;18.604;2023-04-23T12:06:54;4.43;;;2.67;;
54539;SDS011;40438;52.992;18.604;2023-04-23T12:09:22;4.20;;;2.70;;
54539;SDS011;40438;52.992;18.604;2023-04-23T12:11:49;7.13;;;2.50;;
54539;SDS011;40438;52.992;18.604;2023-04-23T12:14:15;6.93;;;2.63;;
54539;SDS011;40438;52.992;18.604;2023-04-23T12:16:42;4.90;;;3.15;;
54539;SDS011;40438;52.992;18.604;2023-04-23T12:19:11;5.75;;;3.45;;
54539;SDS011;40438;52.992;18.604;2023-04-23T12:21:50;6.90;;;2.75;;
54539;SDS011;40438;52.992;18.604;2023-04-23T12:24:16;5.88;;;2.65;;
54539;SDS011;40438;52.992;18.604;2023-04-23T12:26:44;7.82;;;2.83;;
54539;SDS011;40438;52.992;18.604;2023-04-23T12:29:13;6.75;;;3.08;;
54539;SDS011;40438;52.992;18.604;2023-04-23T12:31:39;4.25;;;2.78;;
54539;SDS011;40438;52.992;18.604;2023-04-23T12:34:09;3.67;;;2.90;;
54539;SDS011;40438;52.992;18.604;2023-04-23T12:36:37;5.57;;;2.95;;
54539;SDS011;40438;52.992;18.604;2023-04-23T12:39:19;6.70;;;2.95;;
54539;SDS011;40438;52.992;18.604;2023-04-23T12:41:51;6.53;;;2.80;;
54539;SDS011;40438;52.992;18.604;2023-04-23T12:44:18;5.95;;;3.03;;
54539;SDS011;40438;52.992;18.604;2023-04-23T12:46:45;6.97;;;3.00;;
54539;SDS011;40438;52.992;18.604;2023-04-23T12:49:13;4.47;;;3.00;;
54539;SDS011;40438;52.992;18.604;2023-04-23T12:51:39;3.30;;;2.85;;
54539;SDS011;40438;52.992;18.604;2023-04-23T12:54:05;5.50;;;2.92;;
54539;SDS011;40438;52.992;18.604;2023-04-23T12:56:30;6.25;;;3.03;;
54539;SDS011;40438;52.992;18.604;2023-04-23T12:58:58;7.10;;;2.80;;
54539;SDS011;40438;52.992;18.604;2023-04-23T13:01:24;6.35;;;3.30;;
54539;SDS011;40438;52.992;18.604;2023-04-23T13:03:49;6.35;;;3.08;;
54539;SDS011;40438;52.992;18.604;2023-04-23T13:06:15;7.03;;;2.85;;
54539;SDS011;40438;52.992;18.604;2023-04-23T13:08:41;7.68;;;2.80;;
54539;SDS011;40438;52.992;18.604;2023-04-23T13:11:07;5.78;;;3.10;;
54539;SDS011;40438;52.992;18.604;2023-04-23T13:13:33;3.38;;;2.72;;
54539;SDS011;40438;52.992;18.604;2023-04-23T13:16:00;9.10;;;3.35;;
54539;SDS011;40438;52.992;18.604;2023-04-23T13:18:26;4.93;;;2.78;;
54539;SDS011;40438;52.992;18.604;2023-04-23T13:20:52;5.03;;;2.80;;
54539;SDS011;40438;52.992;18.604;2023-04-23T13:23:17;9.57;;;3.13;;
54539;SDS011;40438;52.992;18.604;2023-04-23T13:25:43;9.25;;;3.40;;
54539;SDS011;40438;52.992;18.604;2023-04-23T13:28:09;5.38;;;2.40;;
54539;SDS011;40438;52.992;18.604;2023-04-23T13:30:35;6.07;;;2.53;;
54539;SDS011;40438;52.992;18.604;2023-04-23T13:33:02;3.33;;;2.58;;
54539;SDS011;40438;52.992;18.604;2023-04-23T13:35:28;3.90;;;2.80;;
54539;SDS011;40438;52.992;18.604;2023-04-23T13:37:54;6.25;;;2.80;;
54539;SDS011;40438;52.992;18.604;2023-04-23T13:40:19;3.67;;;2.65;;
54539;SDS011;40438;52.992;18.604;2023-04-23T13:42:45;3.05;;;2.08;;
54539;SDS011;40438;52.992;18.604;2023-04-23T13:45:11;3.80;;;2.60;;
54539;SDS011;40438;52.992;18.604;2023-04-23T13:47:37;6.20;;;2.60;;
54539;SDS011;40438;52.992;18.604;2023-04-23T13:50:04;6.00;;;2.38;;
54539;SDS011;40438;52.992;18.604;2023-04-23T13:52:31;3.35;;;2.40;;
54539;SDS011;40438;52.992;18.604;2023-04-23T13:54:57;5.43;;;2.40;;
54539;SDS011;40438;52.992;18.604;2023-04-23T13:57:22;2.92;;;2.33;;
54539;SDS011;40438;52.992;18.604;2023-04-23T13:59:48;2.38;;;2.00;;
54539;SDS011;40438;52.992;18.604;2023-04-23T14:02:14;2.80;;;2.30;;
54539;SDS011;40438;52.992;18.604;2023-04-23T14:04:40;4.35;;;2.08;;
54539;SDS011;40438;52.992;18.604;2023-04-23T14:07:07;6.03;;;2.20;;
54539;SDS011;40438;52.992;18.604;2023-04-23T14:09:33;5.82;;;2.08;;
54539;SDS011;40438;52.992;18.604;2023-04-23T14:11:58;3.55;;;2.00;;
54539;SDS011;40438;52.992;18.604;2023-04-23T14:14:24;3.15;;;2.10;;
54539;SDS011;40438;52.992;18.604;2023-04-23T14:16:50;2.90;;;2.13;;
54539;SDS011;40438;52.992;18.604;2023-04-23T14:19:16;3.92;;;2.30;;
54539;SDS011;40438;52.992;18.604;2023-04-23T14:21:42;4.05;;;1.92;;
54539;SDS011;40438;52.992;18.604;2023-04-23T14:24:15;3.90;;;1.77;;